sensor_id;sensor_type;location;lat;lon;timestamp;pressure;altitude;pressure_sealevel;temperature;humidity
49030;BME280;43337;52.070;4.508;2022-11-30T00:00:16;102486.41;;;5.74;100.00
49030;BME280;43337;52.070;4.508;2022-11-30T00:02:41;102438.41;;;5.48;100.00
49030;BME280;43337;52.070;4.508;2022-11-30T00:05:07;102465.44;;;5.57;100.00
49030;BME280;43337;52.070;4.508;2022-11-30T00:07:32;102477.72;;;5.74;100.00
49030;BME280;43337;52.070;4.508;2022-11-30T00:09:58;102454.97;;;5.53;100.00
49030;BME280;43337;52.070;4.508;2022-11-30T00:12:23;102468.94;;;5.62;100.00
49030;BME280;43337;52.070;4.508;2022-11-30T00:14:49;102484.66;;;5.70;100.00
49030;BME280;43337;52.070;4.508;2022-11-30T00:17:14;102487.25;;;5.72;100.00
49030;BME280;43337;52.070;4.508;2022-11-30T00:19:39;102478.53;;;5.67;100.00
49030;BME280;43337;52.070;4.508;2022-11-30T00:22:05;102495.13;;;5.79;100.00
49030;BME280;43337;52.070;4.508;2022-11-30T00:24:30;102477.66;;;5.64;100.00
49030;BME280;43337;52.070;4.508;2022-11-30T00:26:56;102487.28;;;5.73;100.00
49030;BME280;43337;52.070;4.508;2022-11-30T00:29:21;102496.03;;;5.77;100.00
49030;BME280;43337;52.070;4.508;2022-11-30T00:31:46;102497.78;;;5.81;100.00
49030;BME280;43337;52.070;4.508;2022-11-30T00:34:12;102495.13;;;5.79;100.00
49030;BME280;43337;52.070;4.508;2022-11-30T00:36:37;102492.53;;;5.78;100.00
49030;BME280;43337;52.070;4.508;2022-11-30T00:39:03;102494.28;;;5.79;100.00
49030;BME280;43337;52.070;4.508;2022-11-30T00:41:28;102496.91;;;5.83;100.00
49030;BME280;43337;52.070;4.508;2022-11-30T00:43:54;102482.94;;;5.78;100.00
49030;BME280;43337;52.070;4.508;2022-11-30T00:46:20;102467.25;;;5.71;100.00
49030;BME280;43337;52.070;4.508;2022-11-30T00:48:45;102490.78;;;5.83;100.00
49030;BME280;43337;52.070;4.508;2022-11-30T00:51:11;102495.16;;;5.87;100.00
49030;BME280;43337;52.070;4.508;2022-11-30T00:53:37;102477.72;;;5.78;100.00
49030;BME280;43337;52.070;4.508;2022-11-30T00:56:04;102482.09;;;5.84;100.00
49030;BME280;43337;52.070;4.508;2022-11-30T00:58:30;102493.44;;;5.91;100.00
49030;BME280;43337;52.070;4.508;2022-11-30T01:00:55;102491.69;;;5.86;100.00
49030;BME280;43337;52.070;4.508;2022-11-30T01:03:20;102478.63;;;5.85;100.00
49030;BME280;43337;52.070;4.508;2022-11-30T01:05:46;102477.75;;;5.86;100.00
49030;BME280;43337;52.070;4.508;2022-11-30T01:08:12;102492.63;;;5.93;100.00
49030;BME280;43337;52.070;4.508;2022-11-30T01:10:39;102483.03;;;5.92;100.00
49030;BME280;43337;52.070;4.508;2022-11-30T01:13:04;102486.53;;;5.93;100.00
49030;BME280;43337;52.070;4.508;2022-11-30T01:15:30;102491.75;;;5.93;100.00
49030;BME280;43337;52.070;4.508;2022-11-30T01:17:59;102497.84;;;5.98;100.00
49030;BME280;43337;52.070;4.508;2022-11-30T01:20:25;102485.66;;;5.92;100.00
49030;BME280;43337;52.070;4.508;2022-11-30T01:22:50;102471.66;;;5.85;100.00
49030;BME280;43337;52.070;4.508;2022-11-30T01:25:16;102494.38;;;5.99;100.00
49030;BME280;43337;52.070;4.508;2022-11-30T01:27:41;102480.34;;;5.87;100.00
49030;BME280;43337;52.070;4.508;2022-11-30T01:30:07;102477.75;;;5.91;100.00
49030;BME280;43337;52.070;4.508;2022-11-30T01:32:32;102485.66;;;5.97;100.00
49030;BME280;43337;52.070;4.508;2022-11-30T01:34:57;102486.53;;;5.93;100.00
49030;BME280;43337;52.070;4.508;2022-11-30T01:37:23;102500.50;;;6.04;100.00
49030;BME280;43337;52.070;4.508;2022-11-30T01:39:48;102455.06;;;5.79;100.00
49030;BME280;43337;52.070;4.508;2022-11-30T01:42:16;102489.16;;;6.05;100.00
49030;BME280;43337;52.070;4.508;2022-11-30T01:44:50;102484.81;;;6.01;100.00
49030;BME280;43337;52.070;4.508;2022-11-30T01:47:17;102490.03;;;6.05;100.00
49030;BME280;43337;52.070;4.508;2022-11-30T01:49:47;102488.28;;;6.06;100.00
49030;BME280;43337;52.070;4.508;2022-11-30T01:52:18;102485.66;;;5.97;100.00
49030;BME280;43337;52.070;4.508;2022-11-30T01:54:56;102480.44;;;5.97;100.00
49030;BME280;43337;52.070;4.508;2022-11-30T01:57:25;102496.13;;;6.00;100.00
49030;BME280;43337;52.070;4.508;2022-11-30T01:59:53;102478.59;;;5.83;100.00
49030;BME280;43337;52.070;4.508;2022-11-30T02:02:27;102482.97;;;5.83;100.00
49030;BME280;43337;52.070;4.508;2022-11-30T02:04:56;102505.63;;;5.87;100.00
49030;BME280;43337;52.070;4.508;2022-11-30T02:07:21;102482.91;;;5.71;100.00
49030;BME280;43337;52.070;4.508;2022-11-30T02:09:47;102480.28;;;5.68;100.00
49030;BME280;43337;52.070;4.508;2022-11-30T02:12:53;102497.72;;;5.72;100.00
49030;BME280;43337;52.070;4.508;2022-11-30T02:15:18;102499.44;;;5.68;100.00
49030;BME280;43337;52.070;4.508;2022-11-30T02:18:26;102495.94;;;5.61;100.00
49030;BME280;43337;52.070;4.508;2022-11-30T02:23:45;102508.13;;;5.61;100.00
49030;BME280;43337;52.070;4.508;2022-11-30T02:26:25;102497.59;;;5.49;100.00
49030;BME280;43337;52.070;4.508;2022-11-30T02:34:35;102509.00;;;5.58;100.00
49030;BME280;43337;52.070;4.508;2022-11-30T02:37:02;102482.75;;;5.42;100.00
49030;BME280;43337;52.070;4.508;2022-11-30T02:39:29;102510.69;;;5.53;100.00
49030;BME280;43337;52.070;4.508;2022-11-30T02:41:54;102461.84;;;5.31;100.00
49030;BME280;43337;52.070;4.508;2022-11-30T02:44:20;102504.63;;;5.54;100.00
49030;BME280;43337;52.070;4.508;2022-11-30T02:49:42;102481.94;;;5.47;100.00
49030;BME280;43337;52.070;4.508;2022-11-30T02:52:10;102493.28;;;5.51;100.00
49030;BME280;43337;52.070;4.508;2022-11-30T02:54:35;102514.25;;;5.61;100.00
49030;BME280;43337;52.070;4.508;2022-11-30T02:57:01;102506.41;;;5.61;100.00
49030;BME280;43337;52.070;4.508;2022-11-30T02:59:27;102503.78;;;5.61;100.00
49030;BME280;43337;52.070;4.508;2022-11-30T03:01:52;102509.00;;;5.60;100.00
49030;BME280;43337;52.070;4.508;2022-11-30T03:04:18;102505.47;;;5.56;100.00
49030;BME280;43337;52.070;4.508;2022-11-30T03:06:43;102488.94;;;5.50;100.00
49030;BME280;43337;52.070;4.508;2022-11-30T03:09:08;102500.25;;;5.56;100.00
49030;BME280;43337;52.070;4.508;2022-11-30T03:11:34;102469.72;;;5.38;100.00
49030;BME280;43337;52.070;4.508;2022-11-30T03:14:00;102503.75;;;5.57;100.00
49030;BME280;43337;52.070;4.508;2022-11-30T03:16:25;102460.06;;;5.27;100.00
49030;BME280;43337;52.070;4.508;2022-11-30T03:18:51;102503.75;;;5.54;100.00
49030;BME280;43337;52.070;4.508;2022-11-30T03:21:16;102456.56;;;5.26;100.00
49030;BME280;43337;52.070;4.508;2022-11-30T03:23:41;102489.75;;;5.43;100.00
49030;BME280;43337;52.070;4.508;2022-11-30T03:26:07;102509.88;;;5.59;100.00
49030;BME280;43337;52.070;4.508;2022-11-30T03:28:34;102519.44;;;5.58;100.00
49030;BME280;43337;52.070;4.508;2022-11-30T03:31:00;102499.34;;;5.44;100.00
49030;BME280;43337;52.070;4.508;2022-11-30T03:33:25;102520.31;;;5.57;100.00
49030;BME280;43337;52.070;4.508;2022-11-30T03:36:01;102524.69;;;5.61;100.00
49030;BME280;43337;52.070;4.508;2022-11-30T03:38:26;102494.13;;;5.47;100.00
49030;BME280;43337;52.070;4.508;2022-11-30T03:41:13;102522.94;;;5.62;100.00
49030;BME280;43337;52.070;4.508;2022-11-30T03:43:40;102522.06;;;5.63;100.00
49030;BME280;43337;52.070;4.508;2022-11-30T03:46:06;102523.78;;;5.61;100.00
49030;BME280;43337;52.070;4.508;2022-11-30T03:48:31;102516.81;;;5.57;100.00
49030;BME280;43337;52.070;4.508;2022-11-30T03:50:57;102506.31;;;5.46;100.00
49030;BME280;43337;52.070;4.508;2022-11-30T03:53:23;102523.81;;;5.58;100.00
49030;BME280;43337;52.070;4.508;2022-11-30T03:55:55;102514.16;;;5.49;100.00
49030;BME280;43337;52.070;4.508;2022-11-30T03:58:22;102491.41;;;5.30;100.00
49030;BME280;43337;52.070;4.508;2022-11-30T04:00:48;102528.94;;;5.49;100.00
49030;BME280;43337;52.070;4.508;2022-11-30T04:03:14;102528.94;;;5.49;100.00
49030;BME280;43337;52.070;4.508;2022-11-30T04:05:39;102494.88;;;5.29;100.00
49030;BME280;43337;52.070;4.508;2022-11-30T04:08:05;102531.56;;;5.49;100.00
49030;BME280;43337;52.070;4.508;2022-11-30T04:10:30;102520.22;;;5.44;100.00
49030;BME280;43337;52.070;4.508;2022-11-30T04:12:55;102527.16;;;5.42;100.00
49030;BME280;43337;52.070;4.508;2022-11-30T04:15:21;102537.63;;;5.45;100.00
49030;BME280;43337;52.070;4.508;2022-11-30T04:17:46;102537.59;;;5.37;100.00
49030;BME280;43337;52.070;4.508;2022-11-30T04:20:12;102526.19;;;5.26;100.00
49030;BME280;43337;52.070;4.508;2022-11-30T04:22:37;102529.72;;;5.28;100.00
49030;BME280;43337;52.070;4.508;2022-11-30T04:25:03;102530.53;;;5.21;100.00
49030;BME280;43337;52.070;4.508;2022-11-30T04:27:28;102541.00;;;5.30;100.00
49030;BME280;43337;52.070;4.508;2022-11-30T04:29:53;102542.78;;;5.31;100.00
49030;BME280;43337;52.070;4.508;2022-11-30T04:32:19;102505.19;;;5.10;100.00
49030;BME280;43337;52.070;4.508;2022-11-30T04:34:45;102527.91;;;5.19;100.00
49030;BME280;43337;52.070;4.508;2022-11-30T04:37:10;102530.53;;;5.19;100.00
49030;BME280;43337;52.070;4.508;2022-11-30T04:39:36;102537.53;;;5.28;100.00
49030;BME280;43337;52.070;4.508;2022-11-30T04:42:01;102547.13;;;5.32;100.00
49030;BME280;43337;52.070;4.508;2022-11-30T04:44:26;102527.06;;;5.23;100.00
49030;BME280;43337;52.070;4.508;2022-11-30T04:46:52;102543.66;;;5.33;100.00
49030;BME280;43337;52.070;4.508;2022-11-30T04:49:17;102484.28;;;5.01;100.00
49030;BME280;43337;52.070;4.508;2022-11-30T04:51:42;102527.94;;;5.24;100.00
49030;BME280;43337;52.070;4.508;2022-11-30T04:54:08;102539.31;;;5.33;100.00
49030;BME280;43337;52.070;4.508;2022-11-30T04:56:33;102554.16;;;5.39;100.00
49030;BME280;43337;52.070;4.508;2022-11-30T04:59:00;102537.59;;;5.37;100.00
49030;BME280;43337;52.070;4.508;2022-11-30T05:01:26;102525.34;;;5.27;100.00
49030;BME280;43337;52.070;4.508;2022-11-30T05:03:52;102541.94;;;5.35;100.00
49030;BME280;43337;52.070;4.508;2022-11-30T05:06:17;102530.56;;;5.28;100.00
49030;BME280;43337;52.070;4.508;2022-11-30T05:08:43;102494.75;;;5.09;100.00
49030;BME280;43337;52.070;4.508;2022-11-30T05:11:08;102554.13;;;5.34;100.00
49030;BME280;43337;52.070;4.508;2022-11-30T05:13:33;102553.28;;;5.38;100.00
49030;BME280;43337;52.070;4.508;2022-11-30T05:15:59;102530.53;;;5.19;100.00
49030;BME280;43337;52.070;4.508;2022-11-30T05:18:25;102535.78;;;5.25;100.00
49030;BME280;43337;52.070;4.508;2022-11-30T05:20:52;102575.06;;;5.44;100.00
49030;BME280;43337;52.070;4.508;2022-11-30T05:23:18;102562.00;;;5.44;100.00
49030;BME280;43337;52.070;4.508;2022-11-30T05:25:43;102549.81;;;5.39;100.00
49030;BME280;43337;52.070;4.508;2022-11-30T05:28:09;102556.78;;;5.45;100.00
49030;BME280;43337;52.070;4.508;2022-11-30T05:30:34;102542.84;;;5.38;100.00
49030;BME280;43337;52.070;4.508;2022-11-30T05:32:59;102568.13;;;5.47;100.00
49030;BME280;43337;52.070;4.508;2022-11-30T05:35:25;102553.28;;;5.40;100.00
49030;BME280;43337;52.070;4.508;2022-11-30T05:37:50;102555.94;;;5.46;100.00
49030;BME280;43337;52.070;4.508;2022-11-30T05:40:15;102539.31;;;5.38;100.00
49030;BME280;43337;52.070;4.508;2022-11-30T05:42:41;102551.56;;;5.44;100.00
49030;BME280;43337;52.070;4.508;2022-11-30T05:45:07;102567.28;;;5.50;100.00
49030;BME280;43337;52.070;4.508;2022-11-30T05:47:32;102551.53;;;5.39;100.00
49030;BME280;43337;52.070;4.508;2022-11-30T05:49:58;102513.09;;;5.18;100.00
49030;BME280;43337;52.070;4.508;2022-11-30T05:52:23;102534.97;;;5.31;100.00
49030;BME280;43337;52.070;4.508;2022-11-30T05:54:48;102565.56;;;5.52;100.00
49030;BME280;43337;52.070;4.508;2022-11-30T05:57:14;102551.56;;;5.42;100.00
49030;BME280;43337;52.070;4.508;2022-11-30T05:59:39;102575.16;;;5.54;100.00
49030;BME280;43337;52.070;4.508;2022-11-30T06:02:04;102526.16;;;5.21;100.00
49030;BME280;43337;52.070;4.508;2022-11-30T06:04:32;102568.16;;;5.50;100.00
49030;BME280;43337;52.070;4.508;2022-11-30T06:06:58;102548.03;;;5.35;100.00
49030;BME280;43337;52.070;4.508;2022-11-30T06:09:23;102561.16;;;5.43;100.00
49030;BME280;43337;52.070;4.508;2022-11-30T06:11:49;102584.72;;;5.57;100.00
49030;BME280;43337;52.070;4.508;2022-11-30T06:14:14;102582.16;;;5.61;100.00
49030;BME280;43337;52.070;4.508;2022-11-30T06:16:40;102567.31;;;5.56;100.00
49030;BME280;43337;52.070;4.508;2022-11-30T06:19:05;102554.19;;;5.48;100.00
49030;BME280;43337;52.070;4.508;2022-11-30T06:21:31;102597.91;;;5.71;100.00
49030;BME280;43337;52.070;4.508;2022-11-30T06:23:56;102558.56;;;5.49;100.00
49030;BME280;43337;52.070;4.508;2022-11-30T06:26:22;102571.66;;;5.57;100.00
49030;BME280;43337;52.070;4.508;2022-11-30T06:28:47;102591.78;;;5.70;100.00
49030;BME280;43337;52.070;4.508;2022-11-30T06:31:12;102555.09;;;5.52;100.00
49030;BME280;43337;52.070;4.508;2022-11-30T06:33:38;102565.53;;;5.53;100.00
49030;BME280;43337;52.070;4.508;2022-11-30T06:36:03;102595.31;;;5.75;100.00
49030;BME280;43337;52.070;4.508;2022-11-30T06:38:29;102595.31;;;5.75;100.00
49030;BME280;43337;52.070;4.508;2022-11-30T06:41:07;102592.72;;;5.77;100.00
49030;BME280;43337;52.070;4.508;2022-11-30T06:43:34;102588.31;;;5.71;100.00
49030;BME280;43337;52.070;4.508;2022-11-30T06:46:00;102592.72;;;5.78;100.00
49030;BME280;43337;52.070;4.508;2022-11-30T06:48:28;102595.31;;;5.75;100.00
49030;BME280;43337;52.070;4.508;2022-11-30T06:50:53;102584.81;;;5.68;100.00
49030;BME280;43337;52.070;4.508;2022-11-30T06:53:19;102577.88;;;5.73;100.00
49030;BME280;43337;52.070;4.508;2022-11-30T06:55:44;102597.97;;;5.83;100.00
49030;BME280;43337;52.070;4.508;2022-11-30T06:58:11;102578.75;;;5.73;100.00
49030;BME280;43337;52.070;4.508;2022-11-30T07:00:37;102599.69;;;5.84;100.00
49030;BME280;43337;52.070;4.508;2022-11-30T07:03:03;102605.81;;;5.84;100.00
49030;BME280;43337;52.070;4.508;2022-11-30T07:05:31;102567.38;;;5.62;100.00
49030;BME280;43337;52.070;4.508;2022-11-30T07:07:58;102596.22;;;5.82;100.00
49030;BME280;43337;52.070;4.508;2022-11-30T07:10:24;102578.69;;;5.69;100.00
49030;BME280;43337;52.070;4.508;2022-11-30T07:12:49;102583.94;;;5.72;100.00
49030;BME280;43337;52.070;4.508;2022-11-30T07:15:15;102618.03;;;5.87;100.00
49030;BME280;43337;52.070;4.508;2022-11-30T07:17:40;102611.91;;;5.80;100.00
49030;BME280;43337;52.070;4.508;2022-11-30T07:20:06;102606.69;;;5.80;100.00
49030;BME280;43337;52.070;4.508;2022-11-30T07:22:31;102607.53;;;5.78;100.00
49030;BME280;43337;52.070;4.508;2022-11-30T07:24:57;102618.88;;;5.86;100.00
49030;BME280;43337;52.070;4.508;2022-11-30T07:27:41;102612.75;;;5.78;100.00
49030;BME280;43337;52.070;4.508;2022-11-30T07:30:06;102609.25;;;5.79;100.00
49030;BME280;43337;52.070;4.508;2022-11-30T07:32:32;102585.66;;;5.63;100.00
49030;BME280;43337;52.070;4.508;2022-11-30T07:34:57;102622.31;;;5.73;100.00
49030;BME280;43337;52.070;4.508;2022-11-30T07:37:23;102645.06;;;5.91;100.00
49030;BME280;43337;52.070;4.508;2022-11-30T07:39:48;102634.59;;;5.89;100.00
49030;BME280;43337;52.070;4.508;2022-11-30T07:42:13;102633.72;;;5.88;100.00
49030;BME280;43337;52.070;4.508;2022-11-30T07:44:39;102643.38;;;5.93;100.00
49030;BME280;43337;52.070;4.508;2022-11-30T07:47:05;102633.72;;;5.90;100.00
49030;BME280;43337;52.070;4.508;2022-11-30T07:49:30;102643.28;;;5.85;100.00
49030;BME280;43337;52.070;4.508;2022-11-30T07:51:56;102638.09;;;5.88;100.00
49030;BME280;43337;52.070;4.508;2022-11-30T07:54:21;102605.72;;;5.71;100.00
49030;BME280;43337;52.070;4.508;2022-11-30T07:56:46;102630.22;;;5.85;100.00
49030;BME280;43337;52.070;4.508;2022-11-30T07:59:12;102647.75;;;5.97;100.00
49030;BME280;43337;52.070;4.508;2022-11-30T08:01:37;102642.44;;;5.89;100.00
49030;BME280;43337;52.070;4.508;2022-11-30T08:04:03;102663.44;;;5.98;100.00
49030;BME280;43337;52.070;4.508;2022-11-30T08:06:29;102655.63;;;6.00;100.00
49030;BME280;43337;52.070;4.508;2022-11-30T08:08:57;102661.72;;;6.02;100.00
49030;BME280;43337;52.070;4.508;2022-11-30T08:11:25;102664.31;;;6.03;100.00
49030;BME280;43337;52.070;4.508;2022-11-30T08:13:51;102660.84;;;6.00;100.00
49030;BME280;43337;52.070;4.508;2022-11-30T08:16:19;102664.31;;;6.02;100.00
49030;BME280;43337;52.070;4.508;2022-11-30T08:18:45;102660.84;;;6.00;100.00
49030;BME280;43337;52.070;4.508;2022-11-30T08:21:13;102659.97;;;6.02;100.00
49030;BME280;43337;52.070;4.508;2022-11-30T08:23:41;102671.28;;;6.03;100.00
49030;BME280;43337;52.070;4.508;2022-11-30T08:26:28;102670.47;;;6.10;100.00
49030;BME280;43337;52.070;4.508;2022-11-30T08:28:55;102671.34;;;6.07;100.00
49030;BME280;43337;52.070;4.508;2022-11-30T08:31:24;102675.72;;;6.13;100.00
49030;BME280;43337;52.070;4.508;2022-11-30T08:33:55;102673.13;;;6.16;100.00
49030;BME280;43337;52.070;4.508;2022-11-30T08:36:22;102660.00;;;6.05;100.00
49030;BME280;43337;52.070;4.508;2022-11-30T08:38:48;102680.09;;;6.17;100.00
49030;BME280;43337;52.070;4.508;2022-11-30T08:41:16;102681.91;;;6.23;100.00
49030;BME280;43337;52.070;4.508;2022-11-30T08:43:43;102673.13;;;6.18;100.00
49030;BME280;43337;52.070;4.508;2022-11-30T08:46:10;102693.25;;;6.29;100.00
49030;BME280;43337;52.070;4.508;2022-11-30T08:48:37;102681.03;;;6.30;100.00
49030;BME280;43337;52.070;4.508;2022-11-30T08:51:09;102700.28;;;6.40;100.00
49030;BME280;43337;52.070;4.508;2022-11-30T08:53:35;102697.66;;;6.44;100.00
49030;BME280;43337;52.070;4.508;2022-11-30T08:56:11;102688.94;;;6.41;100.00
49030;BME280;43337;52.070;4.508;2022-11-30T08:58:37;102698.59;;;6.51;100.00
49030;BME280;43337;52.070;4.508;2022-11-30T09:03:35;102698.63;;;6.58;100.00
49030;BME280;43337;52.070;4.508;2022-11-30T09:06:07;102684.66;;;6.55;100.00
49030;BME280;43337;52.070;4.508;2022-11-30T09:08:34;102679.41;;;6.55;100.00
49030;BME280;43337;52.070;4.508;2022-11-30T09:11:18;102684.66;;;6.58;100.00
49030;BME280;43337;52.070;4.508;2022-11-30T09:13:44;102709.13;;;6.75;100.00
49030;BME280;43337;52.070;4.508;2022-11-30T09:16:13;102696.03;;;6.72;100.00
49030;BME280;43337;52.070;4.508;2022-11-30T09:18:39;102702.16;;;6.79;100.00
49030;BME280;43337;52.070;4.508;2022-11-30T09:21:06;102715.28;;;6.87;100.00
49030;BME280;43337;52.070;4.508;2022-11-30T09:23:33;102703.94;;;6.83;100.00
49030;BME280;43337;52.070;4.508;2022-11-30T09:26:01;102700.44;;;6.84;100.00
49030;BME280;43337;52.070;4.508;2022-11-30T09:28:27;102697.81;;;6.84;100.00
49030;BME280;43337;52.070;4.508;2022-11-30T09:31:02;102703.06;;;6.90;100.00
49030;BME280;43337;52.070;4.508;2022-11-30T09:33:29;102693.50;;;6.92;100.00
49030;BME280;43337;52.070;4.508;2022-11-30T09:35:59;102706.59;;;7.01;100.00
49030;BME280;43337;52.070;4.508;2022-11-30T09:38:25;102722.34;;;7.14;100.00
49030;BME280;43337;52.070;4.508;2022-11-30T09:40:56;102724.97;;;7.15;100.00
49030;BME280;43337;52.070;4.508;2022-11-30T09:45:55;102713.63;;;7.12;100.00
49030;BME280;43337;52.070;4.508;2022-11-30T09:51:03;102739.84;;;7.28;100.00
49030;BME280;43337;52.070;4.508;2022-11-30T09:53:39;102690.91;;;7.07;100.00
49030;BME280;43337;52.070;4.508;2022-11-30T09:56:21;102734.59;;;7.36;100.00
49030;BME280;43337;52.070;4.508;2022-11-30T09:58:55;102738.13;;;7.40;100.00
49030;BME280;43337;52.070;4.508;2022-11-30T10:01:21;102731.09;;;7.34;100.00
49030;BME280;43337;52.070;4.508;2022-11-30T10:03:47;102691.78;;;7.14;100.00
49030;BME280;43337;52.070;4.508;2022-11-30T10:09:46;102726.75;;;7.33;100.00
49030;BME280;43337;52.070;4.508;2022-11-30T10:12:41;102745.97;;;7.49;100.00
49030;BME280;43337;52.070;4.508;2022-11-30T10:15:19;102741.59;;;7.52;100.00
49030;BME280;43337;52.070;4.508;2022-11-30T10:17:55;102743.38;;;7.55;100.00
49030;BME280;43337;52.070;4.508;2022-11-30T10:26:10;102748.59;;;7.64;100.00
49030;BME280;43337;52.070;4.508;2022-11-30T10:28:49;102741.63;;;7.68;100.00
49030;BME280;43337;52.070;4.508;2022-11-30T10:31:17;102714.53;;;7.59;100.00
49030;BME280;43337;52.070;4.508;2022-11-30T10:33:48;102733.75;;;7.75;100.00
49030;BME280;43337;52.070;4.508;2022-11-30T10:36:26;102727.63;;;7.75;100.00
49030;BME280;43337;52.070;4.508;2022-11-30T10:39:01;102715.41;;;7.77;100.00
49030;BME280;43337;52.070;4.508;2022-11-30T10:41:42;102718.03;;;7.81;100.00
49030;BME280;43337;52.070;4.508;2022-11-30T10:44:15;102728.50;;;7.92;100.00
49030;BME280;43337;52.070;4.508;2022-11-30T10:49:18;102728.47;;;8.03;100.00
49030;BME280;43337;52.070;4.508;2022-11-30T10:51:52;102730.22;;;8.07;100.00
49030;BME280;43337;52.070;4.508;2022-11-30T10:54:21;102726.75;;;8.05;100.00
49030;BME280;43337;52.070;4.508;2022-11-30T10:56:47;102708.38;;;7.97;100.00
49030;BME280;43337;52.070;4.508;2022-11-30T10:59:20;102694.41;;;7.89;100.00
49030;BME280;43337;52.070;4.508;2022-11-30T11:01:47;102721.50;;;8.05;100.00
49030;BME280;43337;52.070;4.508;2022-11-30T11:04:22;102720.63;;;8.04;100.00
49030;BME280;43337;52.070;4.508;2022-11-30T11:06:51;102716.25;;;8.00;100.00
49030;BME280;43337;52.070;4.508;2022-11-30T11:11:57;102725.88;;;7.97;100.00
49030;BME280;43337;52.070;4.508;2022-11-30T11:14:24;102724.97;;;7.99;100.00
49030;BME280;43337;52.070;4.508;2022-11-30T11:16:53;102716.25;;;7.97;100.00
49030;BME280;43337;52.070;4.508;2022-11-30T11:19:30;102719.75;;;7.98;100.00
49030;BME280;43337;52.070;4.508;2022-11-30T11:21:57;102677.81;;;7.81;100.00
49030;BME280;43337;52.070;4.508;2022-11-30T11:24:26;102711.84;;;8.10;100.00
49030;BME280;43337;52.070;4.508;2022-11-30T11:26:54;102712.72;;;8.23;100.00
49030;BME280;43337;52.070;4.508;2022-11-30T11:29:29;102721.44;;;8.28;100.00
49030;BME280;43337;52.070;4.508;2022-11-30T11:32:18;102712.69;;;8.32;100.00
49030;BME280;43337;52.070;4.508;2022-11-30T11:34:45;102710.94;;;8.34;100.00
49030;BME280;43337;52.070;4.508;2022-11-30T11:37:18;102714.41;;;8.45;100.00
49030;BME280;43337;52.070;4.508;2022-11-30T11:42:44;102704.75;;;8.61;100.00
49030;BME280;43337;52.070;4.508;2022-11-30T11:45:20;102700.28;;;8.72;100.00
49030;BME280;43337;52.070;4.508;2022-11-30T11:47:46;102695.91;;;8.76;100.00
49030;BME280;43337;52.070;4.508;2022-11-30T11:50:33;102700.28;;;8.78;100.00
49030;BME280;43337;52.070;4.508;2022-11-30T11:55:52;102655.75;;;8.59;100.00
49030;BME280;43337;52.070;4.508;2022-11-30T11:58:27;102681.94;;;8.71;100.00
49030;BME280;43337;52.070;4.508;2022-11-30T12:00:58;102677.56;;;8.67;100.00
49030;BME280;43337;52.070;4.508;2022-11-30T12:06:23;102687.25;;;8.57;100.00
49030;BME280;43337;52.070;4.508;2022-11-30T12:08:56;102679.41;;;8.48;100.00
49030;BME280;43337;52.070;4.508;2022-11-30T12:11:28;102679.44;;;8.43;100.00
49030;BME280;43337;52.070;4.508;2022-11-30T12:13:57;102697.75;;;8.52;100.00
49030;BME280;43337;52.070;4.508;2022-11-30T12:24:32;102689.03;;;8.50;100.00
49030;BME280;43337;52.070;4.508;2022-11-30T12:37:29;102715.22;;;8.64;100.00
49030;BME280;43337;52.070;4.508;2022-11-30T12:40:14;102714.38;;;8.65;100.00
49030;BME280;43337;52.070;4.508;2022-11-30T12:42:50;102684.63;;;8.52;100.00
49030;BME280;43337;52.070;4.508;2022-11-30T12:45:29;102695.13;;;8.62;100.00
49030;BME280;43337;52.070;4.508;2022-11-30T12:51:35;102711.69;;;8.68;100.00
49030;BME280;43337;52.070;4.508;2022-11-30T12:54:38;102714.31;;;8.68;100.00
49030;BME280;43337;52.070;4.508;2022-11-30T12:57:18;102723.06;;;8.76;100.00
49030;BME280;43337;52.070;4.508;2022-11-30T13:05:15;102707.31;;;8.76;100.00
49030;BME280;43337;52.070;4.508;2022-11-30T13:07:46;102723.00;;;8.89;100.00
49030;BME280;43337;52.070;4.508;2022-11-30T13:10:23;102729.97;;;8.96;100.00
49030;BME280;43337;52.070;4.508;2022-11-30T13:12:52;102726.44;;;9.00;100.00
49030;BME280;43337;52.070;4.508;2022-11-30T13:15:31;102714.16;;;9.02;100.00
49030;BME280;43337;52.070;4.508;2022-11-30T13:17:57;102721.13;;;9.06;100.00
49030;BME280;43337;52.070;4.508;2022-11-30T13:20:35;102716.78;;;9.03;100.00
49030;BME280;43337;52.070;4.508;2022-11-30T13:26:05;102721.16;;;9.03;100.00
49030;BME280;43337;52.070;4.508;2022-11-30T13:31:30;102718.56;;;9.00;98.91
49030;BME280;43337;52.070;4.508;2022-11-30T13:33:59;102712.47;;;8.87;99.53
49030;BME280;43337;52.070;4.508;2022-11-30T13:36:38;102722.09;;;8.93;100.00
49030;BME280;43337;52.070;4.508;2022-11-30T13:39:21;102727.34;;;8.93;100.00
49030;BME280;43337;52.070;4.508;2022-11-30T13:44:31;102726.50;;;8.89;98.31
49030;BME280;43337;52.070;4.508;2022-11-30T13:47:04;102718.63;;;8.80;98.72
49030;BME280;43337;52.070;4.508;2022-11-30T13:49:31;102735.25;;;8.84;98.52
49030;BME280;43337;52.070;4.508;2022-11-30T13:52:00;102724.78;;;8.79;99.18
49030;BME280;43337;52.070;4.508;2022-11-30T14:08:08;102745.84;;;8.73;99.72
49030;BME280;43337;52.070;4.508;2022-11-30T14:10:37;102745.81;;;8.71;99.52
49030;BME280;43337;52.070;4.508;2022-11-30T14:18:21;102740.59;;;8.70;99.87
49030;BME280;43337;52.070;4.508;2022-11-30T14:26:17;102755.47;;;8.66;99.29
49030;BME280;43337;52.070;4.508;2022-11-30T14:28:57;102747.63;;;8.59;99.53
49030;BME280;43337;52.070;4.508;2022-11-30T14:31:29;102743.25;;;8.56;99.55
49030;BME280;43337;52.070;4.508;2022-11-30T14:34:00;102751.09;;;8.61;99.14
49030;BME280;43337;52.070;4.508;2022-11-30T14:36:42;102756.38;;;8.61;99.48
49030;BME280;43337;52.070;4.508;2022-11-30T14:41:53;102747.66;;;8.51;99.35